HLS YWMO-YPJT
Flight info
| Callsign | HLS |
|---|---|
| Flight time | 4h 3m |
| Altitude | 6000 |
| Route | WBR DCT NISOP Z38 PH/N0180A015 DCT PCTY DCT CNB DCT JT |
| Aircraft | BE58/L-SDFGRY/C |
Departure
| Time | 2026-05-01 11:08 |
|---|---|
| Airport | West Musgrave Airport (YWMO) |
Arrival
| Time | 2026-05-01 15:12 |
|---|---|
| Airport | Perth Jandakot Airport (YPJT) |
| Time | Latitude | Longitude | Altitude | Speed | Heading |
|---|---|---|---|---|---|
| 2026-05-01 10:57 | -26.05510 | 127.69902 | 1565 ft | 0 kts | 180° |
| 2026-05-01 11:02 | -26.05517 | 127.69910 | 1564 ft | 4 kts | 86° |
| 2026-05-01 11:03 | -26.05493 | 127.69926 | 1570 ft | 4 kts | 27° |
| 2026-05-01 11:03 | -26.05473 | 127.69938 | 1572 ft | 3 kts | 23° |
| 2026-05-01 11:03 | -26.05460 | 127.69944 | 1574 ft | 0 kts | 24° |
| 2026-05-01 11:06 | -26.05456 | 127.69946 | 1574 ft | 3 kts | 23° |
| 2026-05-01 11:06 | -26.05396 | 127.69980 | 1579 ft | 16 kts | 13° |
| 2026-05-01 11:07 | -26.05268 | 127.70111 | 1582 ft | 1 kts | 13° |
| 2026-05-01 11:07 | -26.05262 | 127.70051 | 1585 ft | 32 kts | 269° |
| 2026-05-01 11:08 | -26.05258 | 127.69518 | 1585 ft | 100 kts | 270° |
| 2026-05-01 11:08 | -26.05236 | 127.68642 | 1818 ft | 119 kts | 272° |
| 2026-05-01 11:08 | -26.05340 | 127.66766 | 2544 ft | 129 kts | 262° |
| 2026-05-01 11:09 | -26.05462 | 127.65764 | 2836 ft | 133 kts | 265° |
| 2026-05-01 11:09 | -26.05562 | 127.64739 | 3141 ft | 137 kts | 267° |
| 2026-05-01 11:09 | -26.05652 | 127.63675 | 3452 ft | 139 kts | 268° |
| 2026-05-01 11:10 | -26.05816 | 127.61507 | 4064 ft | 141 kts | 268° |
| 2026-05-01 11:10 | -26.05894 | 127.60428 | 4372 ft | 139 kts | 269° |
| 2026-05-01 11:10 | -26.05972 | 127.59358 | 4695 ft | 138 kts | 268° |
| 2026-05-01 11:10 | -26.06059 | 127.58303 | 5001 ft | 136 kts | 267° |
| 2026-05-01 11:11 | -26.06145 | 127.57276 | 5313 ft | 131 kts | 268° |
| 2026-05-01 11:11 | -26.06219 | 127.56288 | 5628 ft | 126 kts | 269° |
| 2026-05-01 11:11 | -26.06285 | 127.55337 | 5938 ft | 122 kts | 269° |
| 2026-05-01 11:11 | -26.06349 | 127.54323 | 5977 ft | 139 kts | 269° |
| 2026-05-01 11:12 | -26.06419 | 127.53209 | 5998 ft | 149 kts | 269° |
| 2026-05-01 11:12 | -26.06499 | 127.52029 | 6001 ft | 157 kts | 268° |
| 2026-05-01 11:12 | -26.06590 | 127.50803 | 6010 ft | 164 kts | 268° |
| 2026-05-01 11:12 | -26.06684 | 127.49515 | 6009 ft | 170 kts | 268° |
| 2026-05-01 11:13 | -26.06778 | 127.48190 | 6009 ft | 173 kts | 268° |
| 2026-05-01 11:13 | -26.06874 | 127.46838 | 6010 ft | 176 kts | 268° |
| 2026-05-01 11:13 | -26.06969 | 127.45471 | 6012 ft | 178 kts | 268° |
| 2026-05-01 11:13 | -26.07066 | 127.44087 | 6008 ft | 180 kts | 268° |
| 2026-05-01 11:14 | -26.07163 | 127.42690 | 6008 ft | 181 kts | 267° |
| 2026-05-01 11:14 | -26.07262 | 127.41290 | 6009 ft | 182 kts | 268° |
| 2026-05-01 11:14 | -26.07359 | 127.39883 | 6009 ft | 182 kts | 268° |
| 2026-05-01 11:14 | -26.07456 | 127.38479 | 6009 ft | 182 kts | 268° |
| 2026-05-01 11:15 | -26.07553 | 127.37074 | 6010 ft | 182 kts | 268° |
| 2026-05-01 11:15 | -26.07650 | 127.35683 | 6007 ft | 182 kts | 268° |
| 2026-05-01 11:15 | -26.07747 | 127.34275 | 6003 ft | 182 kts | 268° |
| 2026-05-01 11:15 | -26.07843 | 127.32877 | 6006 ft | 182 kts | 268° |
| 2026-05-01 11:16 | -26.07940 | 127.31474 | 6009 ft | 182 kts | 268° |
| 2026-05-01 11:16 | -26.08036 | 127.30071 | 6010 ft | 182 kts | 268° |
| 2026-05-01 11:16 | -26.08132 | 127.28671 | 6007 ft | 182 kts | 268° |
| 2026-05-01 11:16 | -26.08228 | 127.27264 | 6007 ft | 182 kts | 268° |
| 2026-05-01 11:17 | -26.08324 | 127.25865 | 6009 ft | 181 kts | 268° |
| 2026-05-01 11:17 | -26.08420 | 127.24464 | 6010 ft | 182 kts | 268° |
| 2026-05-01 11:17 | -26.08515 | 127.23062 | 6016 ft | 182 kts | 268° |
| 2026-05-01 11:17 | -26.08611 | 127.21659 | 6012 ft | 182 kts | 268° |
| 2026-05-01 11:18 | -26.08708 | 127.20258 | 6011 ft | 182 kts | 268° |
| 2026-05-01 11:18 | -26.08804 | 127.18856 | 6012 ft | 182 kts | 268° |
| 2026-05-01 11:18 | -26.08899 | 127.17454 | 6009 ft | 182 kts | 268° |
| 2026-05-01 11:18 | -26.08993 | 127.16052 | 6012 ft | 182 kts | 268° |
| 2026-05-01 11:19 | -26.09088 | 127.14649 | 6011 ft | 182 kts | 268° |
| 2026-05-01 11:19 | -26.09183 | 127.13248 | 6010 ft | 182 kts | 268° |
| 2026-05-01 11:19 | -26.09277 | 127.11863 | 6012 ft | 182 kts | 267° |
| 2026-05-01 11:19 | -26.09372 | 127.10459 | 6009 ft | 182 kts | 268° |
| 2026-05-01 11:20 | -26.09466 | 127.09059 | 6015 ft | 182 kts | 267° |
| 2026-05-01 11:20 | -26.09560 | 127.07657 | 6016 ft | 182 kts | 268° |
| 2026-05-01 11:20 | -26.09654 | 127.06258 | 6014 ft | 181 kts | 268° |
| 2026-05-01 11:20 | -26.09748 | 127.04858 | 6015 ft | 181 kts | 267° |
| 2026-05-01 11:21 | -26.09841 | 127.03463 | 6014 ft | 181 kts | 268° |
| 2026-05-01 11:21 | -26.09934 | 127.02070 | 6018 ft | 181 kts | 268° |
| 2026-05-01 11:21 | -26.10028 | 127.00678 | 6016 ft | 180 kts | 267° |
| 2026-05-01 11:21 | -26.10120 | 126.99288 | 6015 ft | 180 kts | 268° |
| 2026-05-01 11:22 | -26.10212 | 126.97897 | 6017 ft | 180 kts | 267° |
| 2026-05-01 11:22 | -26.10304 | 126.96509 | 6017 ft | 180 kts | 268° |
| 2026-05-01 11:22 | -26.10396 | 126.95120 | 6017 ft | 180 kts | 268° |
| 2026-05-01 11:22 | -26.10488 | 126.93733 | 6020 ft | 180 kts | 268° |
| 2026-05-01 11:23 | -26.10580 | 126.92346 | 6018 ft | 180 kts | 268° |
| 2026-05-01 11:23 | -26.10671 | 126.90958 | 6017 ft | 180 kts | 268° |
| 2026-05-01 11:23 | -26.10763 | 126.89571 | 6016 ft | 180 kts | 268° |
| 2026-05-01 11:23 | -26.10854 | 126.88188 | 6014 ft | 179 kts | 268° |
| 2026-05-01 11:24 | -26.10945 | 126.86804 | 6016 ft | 179 kts | 268° |
| 2026-05-01 11:24 | -26.11036 | 126.85422 | 6018 ft | 179 kts | 268° |
| 2026-05-01 11:24 | -26.11218 | 126.82659 | 6015 ft | 179 kts | 268° |
| 2026-05-01 11:25 | -26.11308 | 126.81280 | 6017 ft | 179 kts | 268° |
| 2026-05-01 11:25 | -26.11487 | 126.78536 | 6016 ft | 179 kts | 268° |
| 2026-05-01 11:25 | -26.11577 | 126.77157 | 6019 ft | 179 kts | 268° |
| 2026-05-01 11:26 | -26.11664 | 126.75778 | 6022 ft | 179 kts | 268° |
| 2026-05-01 11:26 | -26.11839 | 126.73018 | 6019 ft | 179 kts | 268° |
| 2026-05-01 11:26 | -26.11928 | 126.71634 | 6022 ft | 179 kts | 267° |
| 2026-05-01 11:27 | -26.12017 | 126.70250 | 6019 ft | 179 kts | 268° |
| 2026-05-01 11:27 | -26.12105 | 126.68871 | 6019 ft | 179 kts | 268° |
| 2026-05-01 11:27 | -26.12164 | 126.67957 | 6020 ft | 179 kts | 268° |
| 2026-05-01 11:27 | -26.12253 | 126.66575 | 6021 ft | 179 kts | 267° |
| 2026-05-01 11:28 | -26.12372 | 126.64725 | 6021 ft | 179 kts | 268° |
| 2026-05-01 11:28 | -26.12430 | 126.63811 | 6022 ft | 179 kts | 268° |
| 2026-05-01 11:28 | -26.12518 | 126.62428 | 6021 ft | 179 kts | 268° |
| 2026-05-01 11:29 | -26.12694 | 126.59666 | 6021 ft | 179 kts | 268° |
| 2026-05-01 11:29 | -26.12827 | 126.58291 | 6020 ft | 180 kts | 259° |
| 2026-05-01 11:29 | -26.14155 | 126.55915 | 6019 ft | 183 kts | 238° |
| 2026-05-01 11:30 | -26.14879 | 126.54751 | 6024 ft | 183 kts | 239° |
| 2026-05-01 11:30 | -26.15593 | 126.53578 | 6022 ft | 183 kts | 239° |
| 2026-05-01 11:30 | -26.16305 | 126.52410 | 6020 ft | 182 kts | 239° |
| 2026-05-01 11:30 | -26.17021 | 126.51242 | 6020 ft | 182 kts | 239° |
| 2026-05-01 11:31 | -26.17739 | 126.50080 | 6026 ft | 182 kts | 239° |
| 2026-05-01 11:31 | -26.18458 | 126.48922 | 6027 ft | 182 kts | 239° |
| 2026-05-01 11:31 | -26.19179 | 126.47764 | 6024 ft | 182 kts | 239° |
| 2026-05-01 11:31 | -26.19900 | 126.46608 | 6023 ft | 182 kts | 239° |
| 2026-05-01 11:32 | -26.20620 | 126.45453 | 6025 ft | 182 kts | 239° |
| 2026-05-01 11:32 | -26.21341 | 126.44298 | 6024 ft | 181 kts | 239° |
| 2026-05-01 11:32 | -26.22063 | 126.43141 | 6025 ft | 181 kts | 239° |
| 2026-05-01 11:32 | -26.22772 | 126.42005 | 6024 ft | 181 kts | 239° |
| 2026-05-01 11:33 | -26.23491 | 126.40851 | 6030 ft | 182 kts | 239° |
| 2026-05-01 11:33 | -26.24214 | 126.39692 | 6029 ft | 182 kts | 239° |
| 2026-05-01 11:33 | -26.24934 | 126.38536 | 6030 ft | 182 kts | 239° |
| 2026-05-01 11:33 | -26.25656 | 126.37378 | 6034 ft | 182 kts | 239° |
| 2026-05-01 11:34 | -26.26378 | 126.36219 | 6032 ft | 182 kts | 238° |
| 2026-05-01 11:34 | -26.27100 | 126.35060 | 6033 ft | 182 kts | 239° |
| 2026-05-01 11:34 | -26.27822 | 126.33900 | 6031 ft | 182 kts | 238° |
| 2026-05-01 11:34 | -26.28544 | 126.32740 | 6033 ft | 182 kts | 239° |
| 2026-05-01 11:35 | -26.29266 | 126.31580 | 6032 ft | 182 kts | 239° |
| 2026-05-01 11:35 | -26.29986 | 126.30423 | 6031 ft | 182 kts | 239° |
| 2026-05-01 11:35 | -26.30706 | 126.29266 | 6032 ft | 182 kts | 239° |
| 2026-05-01 11:35 | -26.31425 | 126.28111 | 6031 ft | 181 kts | 239° |
| 2026-05-01 11:36 | -26.32142 | 126.26958 | 6029 ft | 181 kts | 239° |
| 2026-05-01 11:36 | -26.32858 | 126.25807 | 6029 ft | 180 kts | 239° |
| 2026-05-01 11:36 | -26.33572 | 126.24660 | 6028 ft | 180 kts | 239° |
| 2026-05-01 11:36 | -26.34284 | 126.23513 | 6031 ft | 180 kts | 239° |
| 2026-05-01 11:37 | -26.34995 | 126.22369 | 6030 ft | 180 kts | 239° |
| 2026-05-01 11:37 | -26.35707 | 126.21221 | 6033 ft | 180 kts | 239° |
| 2026-05-01 11:37 | -26.36418 | 126.20076 | 6034 ft | 180 kts | 239° |
| 2026-05-01 11:37 | -26.37129 | 126.18930 | 6036 ft | 180 kts | 239° |
| 2026-05-01 11:38 | -26.37832 | 126.17796 | 6040 ft | 180 kts | 239° |
| 2026-05-01 11:38 | -26.38548 | 126.16642 | 6037 ft | 181 kts | 239° |
| 2026-05-01 11:38 | -26.39262 | 126.15490 | 6036 ft | 181 kts | 239° |
| 2026-05-01 11:38 | -26.39977 | 126.14337 | 6036 ft | 181 kts | 239° |
| 2026-05-01 11:39 | -26.40695 | 126.13179 | 6035 ft | 181 kts | 239° |
| 2026-05-01 11:39 | -26.41412 | 126.12022 | 6039 ft | 181 kts | 239° |
| 2026-05-01 11:39 | -26.42131 | 126.10863 | 6037 ft | 182 kts | 239° |
| 2026-05-01 11:39 | -26.42848 | 126.09705 | 6034 ft | 181 kts | 238° |
| 2026-05-01 11:40 | -26.43565 | 126.08549 | 6034 ft | 181 kts | 238° |
| 2026-05-01 11:40 | -26.44280 | 126.07395 | 6036 ft | 181 kts | 238° |
| 2026-05-01 11:40 | -26.44992 | 126.06243 | 6034 ft | 180 kts | 238° |
| 2026-05-01 11:40 | -26.45705 | 126.05091 | 6034 ft | 180 kts | 238° |
| 2026-05-01 11:41 | -26.46414 | 126.03944 | 6033 ft | 180 kts | 239° |
| 2026-05-01 11:41 | -26.47126 | 126.02793 | 6038 ft | 180 kts | 238° |
| 2026-05-01 11:41 | -26.47836 | 126.01644 | 6041 ft | 180 kts | 238° |
| 2026-05-01 11:41 | -26.48546 | 126.00496 | 6040 ft | 180 kts | 238° |
| 2026-05-01 11:42 | -26.49257 | 125.99345 | 6039 ft | 180 kts | 238° |
| 2026-05-01 11:42 | -26.49968 | 125.98194 | 6042 ft | 180 kts | 238° |
| 2026-05-01 11:42 | -26.50680 | 125.97041 | 6040 ft | 180 kts | 238° |
| 2026-05-01 11:42 | -26.51391 | 125.95890 | 6037 ft | 180 kts | 238° |
| 2026-05-01 11:43 | -26.52103 | 125.94737 | 6041 ft | 180 kts | 238° |
| 2026-05-01 11:43 | -26.52815 | 125.93584 | 6046 ft | 181 kts | 238° |
| 2026-05-01 11:43 | -26.53518 | 125.92443 | 6045 ft | 181 kts | 238° |
| 2026-05-01 11:44 | -26.54947 | 125.90125 | 6049 ft | 181 kts | 238° |
| 2026-05-01 11:44 | -26.55659 | 125.88968 | 6042 ft | 181 kts | 238° |
| 2026-05-01 11:44 | -26.56372 | 125.87809 | 6043 ft | 181 kts | 238° |
| 2026-05-01 11:44 | -26.57084 | 125.86651 | 6045 ft | 181 kts | 238° |
| 2026-05-01 11:45 | -26.57797 | 125.85492 | 6050 ft | 181 kts | 238° |
| 2026-05-01 11:45 | -26.58510 | 125.84334 | 6047 ft | 181 kts | 238° |
| 2026-05-01 11:45 | -26.59223 | 125.83175 | 6051 ft | 181 kts | 238° |
| 2026-05-01 11:45 | -26.59938 | 125.82014 | 6047 ft | 181 kts | 238° |
| 2026-05-01 11:46 | -26.60652 | 125.80855 | 6046 ft | 181 kts | 238° |
| 2026-05-01 11:46 | -26.61367 | 125.79699 | 6044 ft | 181 kts | 238° |
| 2026-05-01 11:46 | -26.62071 | 125.78560 | 6043 ft | 180 kts | 238° |
| 2026-05-01 11:46 | -26.62780 | 125.77406 | 6048 ft | 180 kts | 238° |
| 2026-05-01 11:47 | -26.63499 | 125.76238 | 6052 ft | 180 kts | 238° |
| 2026-05-01 11:47 | -26.64198 | 125.75100 | 6050 ft | 180 kts | 238° |
| 2026-05-01 11:47 | -26.64907 | 125.73947 | 6052 ft | 180 kts | 237° |
| 2026-05-01 11:47 | -26.65618 | 125.72790 | 6049 ft | 180 kts | 238° |
| 2026-05-01 11:48 | -26.66326 | 125.71636 | 6047 ft | 180 kts | 238° |
| 2026-05-01 11:48 | -26.67034 | 125.70484 | 6050 ft | 180 kts | 238° |
| 2026-05-01 11:48 | -26.67742 | 125.69330 | 6051 ft | 180 kts | 237° |
| 2026-05-01 11:48 | -26.68450 | 125.68179 | 6053 ft | 180 kts | 238° |
| 2026-05-01 11:49 | -26.69159 | 125.67022 | 6058 ft | 180 kts | 237° |
| 2026-05-01 11:49 | -26.69870 | 125.65862 | 6057 ft | 181 kts | 237° |
| 2026-05-01 11:49 | -26.70582 | 125.64702 | 6043 ft | 181 kts | 238° |
| 2026-05-01 11:49 | -26.71295 | 125.63537 | 6051 ft | 181 kts | 237° |
| 2026-05-01 11:50 | -26.72008 | 125.62374 | 6045 ft | 181 kts | 238° |
| 2026-05-01 11:50 | -26.72720 | 125.61213 | 6055 ft | 181 kts | 237° |
| 2026-05-01 11:50 | -26.73433 | 125.60052 | 6045 ft | 181 kts | 237° |
| 2026-05-01 11:50 | -26.74142 | 125.58893 | 6052 ft | 181 kts | 237° |
| 2026-05-01 11:51 | -26.74853 | 125.57732 | 6062 ft | 181 kts | 237° |
| 2026-05-01 11:51 | -26.75563 | 125.56571 | 6057 ft | 181 kts | 238° |
| 2026-05-01 11:51 | -26.76276 | 125.55406 | 6057 ft | 181 kts | 238° |
| 2026-05-01 11:51 | -26.76987 | 125.54242 | 6061 ft | 181 kts | 237° |
| 2026-05-01 11:52 | -26.77701 | 125.53075 | 6058 ft | 182 kts | 237° |
| 2026-05-01 11:52 | -26.78414 | 125.51911 | 6059 ft | 181 kts | 237° |
| 2026-05-01 11:52 | -26.79125 | 125.50745 | 6056 ft | 181 kts | 238° |
| 2026-05-01 11:52 | -26.79838 | 125.49579 | 6059 ft | 181 kts | 237° |
| 2026-05-01 11:53 | -26.80542 | 125.48428 | 6062 ft | 181 kts | 237° |
| 2026-05-01 11:53 | -26.81264 | 125.47246 | 6061 ft | 181 kts | 237° |
| 2026-05-01 11:53 | -26.81973 | 125.46085 | 6059 ft | 181 kts | 237° |
| 2026-05-01 11:53 | -26.82683 | 125.44923 | 6057 ft | 180 kts | 237° |
| 2026-05-01 11:54 | -26.83382 | 125.43779 | 6058 ft | 180 kts | 237° |
| 2026-05-01 11:54 | -26.84088 | 125.42622 | 6060 ft | 180 kts | 237° |
| 2026-05-01 11:54 | -26.84797 | 125.41462 | 6062 ft | 181 kts | 238° |
| 2026-05-01 11:54 | -26.85506 | 125.40298 | 6060 ft | 181 kts | 237° |
| 2026-05-01 11:55 | -26.86214 | 125.39134 | 6070 ft | 181 kts | 237° |
| 2026-05-01 11:55 | -26.86924 | 125.37969 | 6066 ft | 181 kts | 237° |
| 2026-05-01 11:55 | -26.87633 | 125.36806 | 6064 ft | 181 kts | 237° |
| 2026-05-01 11:55 | -26.88343 | 125.35642 | 6065 ft | 181 kts | 238° |
| 2026-05-01 11:56 | -26.89051 | 125.34479 | 6069 ft | 181 kts | 237° |
| 2026-05-01 11:56 | -26.89760 | 125.33317 | 6062 ft | 180 kts | 237° |
| 2026-05-01 11:56 | -26.90466 | 125.32158 | 6061 ft | 180 kts | 237° |
| 2026-05-01 11:56 | -26.91172 | 125.30997 | 6064 ft | 180 kts | 237° |
| 2026-05-01 11:57 | -26.91875 | 125.29841 | 6074 ft | 180 kts | 237° |
| 2026-05-01 11:57 | -26.92578 | 125.28686 | 6064 ft | 179 kts | 237° |
| 2026-05-01 11:57 | -26.93279 | 125.27533 | 6070 ft | 179 kts | 237° |
| 2026-05-01 11:57 | -26.93979 | 125.26381 | 6067 ft | 179 kts | 237° |
| 2026-05-01 11:58 | -26.94682 | 125.25227 | 6077 ft | 179 kts | 237° |
| 2026-05-01 11:58 | -26.95375 | 125.24087 | 6072 ft | 179 kts | 237° |
| 2026-05-01 11:58 | -26.96779 | 125.21774 | 6075 ft | 180 kts | 237° |
| 2026-05-01 11:59 | -26.97485 | 125.20610 | 6079 ft | 180 kts | 237° |
| 2026-05-01 11:59 | -26.98193 | 125.19445 | 6080 ft | 181 kts | 237° |
| 2026-05-01 11:59 | -26.98901 | 125.18278 | 6073 ft | 181 kts | 237° |
| 2026-05-01 12:00 | -27.00315 | 125.15949 | 6070 ft | 181 kts | 237° |
| 2026-05-01 12:00 | -27.01021 | 125.14784 | 6071 ft | 180 kts | 237° |
| 2026-05-01 12:00 | -27.02433 | 125.12456 | 6083 ft | 180 kts | 237° |
| 2026-05-01 12:01 | -27.03139 | 125.11291 | 6078 ft | 180 kts | 237° |
| 2026-05-01 12:01 | -27.03844 | 125.10127 | 6084 ft | 180 kts | 237° |
| 2026-05-01 12:01 | -27.04548 | 125.08963 | 6075 ft | 180 kts | 237° |
| 2026-05-01 12:01 | -27.05251 | 125.07803 | 6080 ft | 180 kts | 237° |
| 2026-05-01 12:02 | -27.05951 | 125.06647 | 6074 ft | 179 kts | 237° |
| 2026-05-01 12:02 | -27.06650 | 125.05493 | 6077 ft | 179 kts | 237° |
| 2026-05-01 12:02 | -27.07347 | 125.04340 | 6080 ft | 178 kts | 237° |
| 2026-05-01 12:02 | -27.08044 | 125.03189 | 6080 ft | 178 kts | 237° |
| 2026-05-01 12:03 | -27.08741 | 125.02038 | 6081 ft | 178 kts | 237° |
| 2026-05-01 12:03 | -27.09437 | 125.00886 | 6081 ft | 178 kts | 237° |
| 2026-05-01 12:03 | -27.10131 | 124.99738 | 6084 ft | 178 kts | 237° |
| 2026-05-01 12:03 | -27.10816 | 124.98604 | 6084 ft | 178 kts | 237° |
| 2026-05-01 12:04 | -27.11510 | 124.97456 | 6088 ft | 178 kts | 237° |
| 2026-05-01 12:04 | -27.12204 | 124.96307 | 6088 ft | 178 kts | 237° |
| 2026-05-01 12:04 | -27.12900 | 124.95153 | 6090 ft | 179 kts | 237° |
| 2026-05-01 12:04 | -27.13598 | 124.93997 | 6092 ft | 179 kts | 237° |
| 2026-05-01 12:05 | -27.14296 | 124.92839 | 6086 ft | 179 kts | 237° |
| 2026-05-01 12:05 | -27.15695 | 124.90520 | 6090 ft | 180 kts | 237° |
| 2026-05-01 12:05 | -27.16396 | 124.89357 | 6087 ft | 180 kts | 236° |
| 2026-05-01 12:06 | -27.17093 | 124.88200 | 6089 ft | 179 kts | 236° |
| 2026-05-01 12:06 | -27.17790 | 124.87045 | 6086 ft | 179 kts | 236° |
| 2026-05-01 12:06 | -27.18487 | 124.85890 | 6093 ft | 179 kts | 237° |
| 2026-05-01 12:06 | -27.19184 | 124.84733 | 6096 ft | 179 kts | 237° |
| 2026-05-01 12:07 | -27.19880 | 124.83577 | 6096 ft | 179 kts | 237° |
| 2026-05-01 12:07 | -27.20575 | 124.82420 | 6094 ft | 178 kts | 237° |
| 2026-05-01 12:07 | -27.21268 | 124.81267 | 6094 ft | 178 kts | 237° |
| 2026-05-01 12:07 | -27.21964 | 124.80114 | 6096 ft | 178 kts | 237° |
| 2026-05-01 12:08 | -27.22657 | 124.78962 | 6091 ft | 178 kts | 237° |
| 2026-05-01 12:08 | -27.23347 | 124.77815 | 6097 ft | 177 kts | 237° |
| 2026-05-01 12:08 | -27.24038 | 124.76665 | 6101 ft | 178 kts | 237° |
| 2026-05-01 12:08 | -27.24728 | 124.75517 | 6092 ft | 177 kts | 237° |
| 2026-05-01 12:09 | -27.25419 | 124.74366 | 6102 ft | 178 kts | 237° |
| 2026-05-01 12:09 | -27.26113 | 124.73211 | 6098 ft | 178 kts | 237° |
| 2026-05-01 12:09 | -27.26804 | 124.72062 | 6100 ft | 177 kts | 237° |
| 2026-05-01 12:09 | -27.27485 | 124.70928 | 6101 ft | 177 kts | 237° |
| 2026-05-01 12:10 | -27.28174 | 124.69780 | 6100 ft | 177 kts | 237° |
| 2026-05-01 12:10 | -27.29552 | 124.67487 | 6108 ft | 178 kts | 237° |
| 2026-05-01 12:10 | -27.30243 | 124.66332 | 6108 ft | 178 kts | 237° |
| 2026-05-01 12:11 | -27.31629 | 124.64017 | 6107 ft | 178 kts | 237° |
| 2026-05-01 12:11 | -27.32323 | 124.62860 | 6105 ft | 178 kts | 237° |
| 2026-05-01 12:11 | -27.33014 | 124.61708 | 6105 ft | 178 kts | 237° |
| 2026-05-01 12:12 | -27.33705 | 124.60556 | 6105 ft | 177 kts | 237° |
| 2026-05-01 12:12 | -27.34392 | 124.59408 | 6105 ft | 177 kts | 237° |
| 2026-05-01 12:12 | -27.35078 | 124.58262 | 6109 ft | 177 kts | 237° |
| 2026-05-01 12:12 | -27.35764 | 124.57117 | 6112 ft | 177 kts | 237° |
| 2026-05-01 12:13 | -27.36450 | 124.55970 | 6113 ft | 176 kts | 238° |
| 2026-05-01 12:13 | -27.37133 | 124.54826 | 6108 ft | 176 kts | 237° |
| 2026-05-01 12:13 | -27.37817 | 124.53684 | 6113 ft | 176 kts | 238° |
| 2026-05-01 12:13 | -27.38502 | 124.52542 | 6112 ft | 176 kts | 237° |
| 2026-05-01 12:14 | -27.39183 | 124.51402 | 6114 ft | 176 kts | 237° |
| 2026-05-01 12:14 | -27.39864 | 124.50262 | 6113 ft | 176 kts | 238° |
| 2026-05-01 12:14 | -27.40545 | 124.49121 | 6117 ft | 176 kts | 237° |
| 2026-05-01 12:14 | -27.40998 | 124.48364 | 6115 ft | 176 kts | 238° |
| 2026-05-01 12:15 | -27.41912 | 124.46831 | 6117 ft | 176 kts | 238° |
| 2026-05-01 12:15 | -27.42365 | 124.46072 | 6120 ft | 177 kts | 238° |
| 2026-05-01 12:15 | -27.43053 | 124.44922 | 6120 ft | 177 kts | 237° |
| 2026-05-01 12:15 | -27.43966 | 124.43393 | 6120 ft | 178 kts | 237° |
| 2026-05-01 12:16 | -27.44652 | 124.42240 | 6115 ft | 177 kts | 238° |
| 2026-05-01 12:16 | -27.45116 | 124.41461 | 6121 ft | 177 kts | 237° |
| 2026-05-01 12:16 | -27.45804 | 124.40310 | 6124 ft | 177 kts | 238° |
| 2026-05-01 12:16 | -27.46492 | 124.39157 | 6123 ft | 177 kts | 237° |
| 2026-05-01 12:17 | -27.47179 | 124.38003 | 6124 ft | 178 kts | 238° |
| 2026-05-01 12:17 | -27.47866 | 124.36849 | 6129 ft | 178 kts | 237° |
| 2026-05-01 12:17 | -27.48554 | 124.35694 | 6125 ft | 177 kts | 237° |
| 2026-05-01 12:17 | -27.49232 | 124.34556 | 6122 ft | 177 kts | 237° |
| 2026-05-01 12:18 | -27.49916 | 124.33408 | 6123 ft | 176 kts | 238° |
| 2026-05-01 12:18 | -27.50596 | 124.32264 | 6126 ft | 176 kts | 237° |
| 2026-05-01 12:18 | -27.51277 | 124.31119 | 6130 ft | 175 kts | 238° |
| 2026-05-01 12:18 | -27.51966 | 124.29961 | 6128 ft | 176 kts | 238° |
| 2026-05-01 12:19 | -27.52636 | 124.28836 | 6127 ft | 175 kts | 238° |
| 2026-05-01 12:19 | -27.53316 | 124.27694 | 6133 ft | 176 kts | 238° |
| 2026-05-01 12:19 | -27.53996 | 124.26549 | 6128 ft | 175 kts | 238° |
| 2026-05-01 12:19 | -27.54683 | 124.25392 | 6130 ft | 175 kts | 238° |
| 2026-05-01 12:20 | -27.55351 | 124.24267 | 6130 ft | 175 kts | 238° |
| 2026-05-01 12:20 | -27.56037 | 124.23112 | 6135 ft | 175 kts | 238° |
| 2026-05-01 12:20 | -27.56706 | 124.21986 | 6137 ft | 175 kts | 238° |
| 2026-05-01 12:20 | -27.57386 | 124.20840 | 6136 ft | 176 kts | 238° |
| 2026-05-01 12:21 | -27.58067 | 124.19693 | 6137 ft | 176 kts | 238° |
| 2026-05-01 12:21 | -27.58750 | 124.18542 | 6137 ft | 177 kts | 238° |
| 2026-05-01 12:21 | -27.59433 | 124.17389 | 6136 ft | 177 kts | 237° |
| 2026-05-01 12:21 | -27.60117 | 124.16237 | 6132 ft | 177 kts | 237° |
| 2026-05-01 12:22 | -27.60799 | 124.15086 | 6134 ft | 176 kts | 237° |
| 2026-05-01 12:22 | -27.61480 | 124.13937 | 6134 ft | 176 kts | 237° |
| 2026-05-01 12:22 | -27.62161 | 124.12789 | 6136 ft | 176 kts | 237° |
| 2026-05-01 12:22 | -27.62840 | 124.11644 | 6136 ft | 176 kts | 237° |
| 2026-05-01 12:23 | -27.63521 | 124.10494 | 6140 ft | 176 kts | 237° |
| 2026-05-01 12:23 | -27.64201 | 124.09344 | 6139 ft | 176 kts | 237° |
| 2026-05-01 12:23 | -27.64879 | 124.08196 | 6137 ft | 176 kts | 237° |
| 2026-05-01 12:23 | -27.65557 | 124.07050 | 6138 ft | 176 kts | 237° |
| 2026-05-01 12:24 | -27.66236 | 124.05906 | 6142 ft | 176 kts | 237° |
| 2026-05-01 12:24 | -27.66913 | 124.04760 | 6138 ft | 175 kts | 237° |
| 2026-05-01 12:24 | -27.67588 | 124.03619 | 6142 ft | 175 kts | 237° |
| 2026-05-01 12:24 | -27.68262 | 124.02478 | 6147 ft | 175 kts | 238° |
| 2026-05-01 12:25 | -27.68939 | 124.01332 | 6145 ft | 175 kts | 237° |
| 2026-05-01 12:25 | -27.70292 | 123.99039 | 6148 ft | 176 kts | 237° |
| 2026-05-01 12:25 | -27.70970 | 123.97891 | 6149 ft | 176 kts | 237° |
| 2026-05-01 12:26 | -27.71648 | 123.96744 | 6150 ft | 175 kts | 237° |
| 2026-05-01 12:26 | -27.73004 | 123.94445 | 6145 ft | 176 kts | 237° |
| 2026-05-01 12:26 | -27.73671 | 123.93314 | 6152 ft | 176 kts | 237° |
| 2026-05-01 12:27 | -27.74348 | 123.92167 | 6150 ft | 176 kts | 237° |
| 2026-05-01 12:27 | -27.75706 | 123.89864 | 6152 ft | 176 kts | 237° |
| 2026-05-01 12:28 | -27.77060 | 123.87567 | 6151 ft | 175 kts | 237° |
| 2026-05-01 12:28 | -27.77734 | 123.86421 | 6151 ft | 175 kts | 237° |
| 2026-05-01 12:28 | -27.79082 | 123.84132 | 6152 ft | 175 kts | 237° |
| 2026-05-01 12:29 | -27.79755 | 123.82989 | 6155 ft | 175 kts | 237° |
| 2026-05-01 12:29 | -27.80426 | 123.81847 | 6157 ft | 174 kts | 237° |
| 2026-05-01 12:29 | -27.81769 | 123.79563 | 6158 ft | 175 kts | 237° |
| 2026-05-01 12:30 | -27.83113 | 123.77279 | 6153 ft | 175 kts | 237° |
| 2026-05-01 12:30 | -27.83784 | 123.76136 | 6162 ft | 174 kts | 237° |
| 2026-05-01 12:30 | -27.84458 | 123.74998 | 6160 ft | 174 kts | 236° |
| 2026-05-01 12:31 | -27.85134 | 123.73857 | 6161 ft | 175 kts | 237° |
| 2026-05-01 12:31 | -27.85806 | 123.72715 | 6161 ft | 175 kts | 237° |
| 2026-05-01 12:31 | -27.86475 | 123.71571 | 6163 ft | 175 kts | 237° |
| 2026-05-01 12:31 | -27.87145 | 123.70420 | 6164 ft | 175 kts | 237° |
| 2026-05-01 12:32 | -27.87816 | 123.69271 | 6164 ft | 175 kts | 237° |
| 2026-05-01 12:32 | -27.89157 | 123.66977 | 6162 ft | 174 kts | 237° |
| 2026-05-01 12:32 | -27.89827 | 123.65835 | 6159 ft | 174 kts | 237° |
| 2026-05-01 12:33 | -27.90489 | 123.64708 | 6162 ft | 174 kts | 237° |
| 2026-05-01 12:33 | -27.91156 | 123.63569 | 6163 ft | 174 kts | 237° |
| 2026-05-01 12:33 | -27.91822 | 123.62430 | 6164 ft | 174 kts | 237° |
| 2026-05-01 12:33 | -27.92491 | 123.61287 | 6161 ft | 174 kts | 237° |
| 2026-05-01 12:34 | -27.93159 | 123.60146 | 6167 ft | 174 kts | 237° |
| 2026-05-01 12:34 | -27.93828 | 123.59003 | 6168 ft | 174 kts | 237° |
| 2026-05-01 12:34 | -27.94500 | 123.57856 | 6168 ft | 175 kts | 237° |
| 2026-05-01 12:34 | -27.95171 | 123.56710 | 6169 ft | 175 kts | 237° |
| 2026-05-01 12:35 | -27.95842 | 123.55560 | 6163 ft | 175 kts | 237° |
| 2026-05-01 12:35 | -27.96511 | 123.54415 | 6166 ft | 175 kts | 238° |
| 2026-05-01 12:35 | -27.97176 | 123.53263 | 6161 ft | 174 kts | 238° |
| 2026-05-01 12:35 | -27.97834 | 123.52112 | 6163 ft | 174 kts | 238° |
| 2026-05-01 12:36 | -27.98496 | 123.50965 | 6171 ft | 174 kts | 237° |
| 2026-05-01 12:36 | -27.99169 | 123.49825 | 6169 ft | 174 kts | 237° |
| 2026-05-01 12:36 | -27.99846 | 123.48687 | 6171 ft | 175 kts | 237° |
| 2026-05-01 12:36 | -28.00521 | 123.47544 | 6172 ft | 175 kts | 237° |
| 2026-05-01 12:37 | -28.01194 | 123.46394 | 6171 ft | 175 kts | 237° |
| 2026-05-01 12:37 | -28.01866 | 123.45244 | 6168 ft | 175 kts | 237° |
| 2026-05-01 12:37 | -28.02535 | 123.44096 | 6175 ft | 175 kts | 237° |
| 2026-05-01 12:37 | -28.03207 | 123.42945 | 6176 ft | 175 kts | 238° |
| 2026-05-01 12:38 | -28.03869 | 123.41809 | 6175 ft | 175 kts | 237° |
| 2026-05-01 12:38 | -28.04540 | 123.40657 | 6172 ft | 175 kts | 238° |
| 2026-05-01 12:38 | -28.05209 | 123.39508 | 6171 ft | 175 kts | 238° |
| 2026-05-01 12:38 | -28.05881 | 123.38354 | 6179 ft | 176 kts | 238° |
| 2026-05-01 12:39 | -28.06555 | 123.37196 | 6173 ft | 176 kts | 237° |
| 2026-05-01 12:39 | -28.07230 | 123.36037 | 6172 ft | 176 kts | 237° |
| 2026-05-01 12:39 | -28.07903 | 123.34880 | 6175 ft | 176 kts | 237° |
| 2026-05-01 12:39 | -28.08576 | 123.33724 | 6171 ft | 176 kts | 237° |
| 2026-05-01 12:40 | -28.09246 | 123.32571 | 6170 ft | 175 kts | 237° |
| 2026-05-01 12:40 | -28.09917 | 123.31418 | 6174 ft | 175 kts | 237° |
| 2026-05-01 12:40 | -28.10584 | 123.30270 | 6174 ft | 174 kts | 237° |
| 2026-05-01 12:40 | -28.11251 | 123.29124 | 6175 ft | 174 kts | 237° |
| 2026-05-01 12:41 | -28.11917 | 123.27978 | 6180 ft | 174 kts | 237° |
| 2026-05-01 12:41 | -28.12583 | 123.26831 | 6178 ft | 174 kts | 237° |
| 2026-05-01 12:41 | -28.13247 | 123.25688 | 6182 ft | 174 kts | 237° |
| 2026-05-01 12:41 | -28.13913 | 123.24541 | 6182 ft | 174 kts | 237° |
| 2026-05-01 12:42 | -28.14578 | 123.23394 | 6180 ft | 174 kts | 237° |
| 2026-05-01 12:42 | -28.15244 | 123.22246 | 6184 ft | 175 kts | 237° |
| 2026-05-01 12:42 | -28.15910 | 123.21098 | 6176 ft | 174 kts | 237° |
| 2026-05-01 12:42 | -28.16576 | 123.19949 | 6180 ft | 174 kts | 237° |
| 2026-05-01 12:43 | -28.17240 | 123.18804 | 6186 ft | 174 kts | 237° |
| 2026-05-01 12:43 | -28.17906 | 123.17656 | 6184 ft | 174 kts | 237° |
| 2026-05-01 12:43 | -28.18569 | 123.16510 | 6186 ft | 174 kts | 237° |
| 2026-05-01 12:43 | -28.19234 | 123.15362 | 6188 ft | 174 kts | 237° |
| 2026-05-01 12:44 | -28.19901 | 123.14211 | 6190 ft | 175 kts | 237° |
| 2026-05-01 12:44 | -28.20570 | 123.13056 | 6185 ft | 175 kts | 236° |
| 2026-05-01 12:44 | -28.21901 | 123.10755 | 6184 ft | 176 kts | 236° |
| 2026-05-01 12:45 | -28.23238 | 123.08443 | 6189 ft | 175 kts | 236° |
| 2026-05-01 12:45 | -28.23907 | 123.07286 | 6186 ft | 175 kts | 236° |
| 2026-05-01 12:45 | -28.24575 | 123.06129 | 6188 ft | 175 kts | 236° |
| 2026-05-01 12:46 | -28.25245 | 123.04971 | 6190 ft | 175 kts | 236° |
| 2026-05-01 12:46 | -28.25914 | 123.03813 | 6192 ft | 176 kts | 236° |
| 2026-05-01 12:46 | -28.26584 | 123.02653 | 6193 ft | 176 kts | 236° |
| 2026-05-01 12:46 | -28.27255 | 123.01491 | 6188 ft | 176 kts | 236° |
| 2026-05-01 12:47 | -28.27925 | 123.00330 | 6188 ft | 176 kts | 235° |
| 2026-05-01 12:47 | -28.28593 | 122.99172 | 6193 ft | 175 kts | 236° |
| 2026-05-01 12:47 | -28.29261 | 122.98015 | 6191 ft | 175 kts | 235° |
| 2026-05-01 12:47 | -28.29928 | 122.96858 | 6195 ft | 175 kts | 236° |
| 2026-05-01 12:48 | -28.30596 | 122.95701 | 6197 ft | 175 kts | 235° |
| 2026-05-01 12:48 | -28.31263 | 122.94542 | 6196 ft | 175 kts | 236° |
| 2026-05-01 12:48 | -28.31933 | 122.93380 | 6201 ft | 176 kts | 235° |
| 2026-05-01 12:48 | -28.32602 | 122.92220 | 6200 ft | 176 kts | 235° |
| 2026-05-01 12:49 | -28.33273 | 122.91056 | 6200 ft | 177 kts | 235° |
| 2026-05-01 12:49 | -28.33946 | 122.89887 | 6198 ft | 177 kts | 235° |
| 2026-05-01 12:49 | -28.34619 | 122.88717 | 6196 ft | 177 kts | 235° |
| 2026-05-01 12:49 | -28.35292 | 122.87547 | 6194 ft | 177 kts | 235° |
| 2026-05-01 12:50 | -28.35956 | 122.86392 | 6192 ft | 177 kts | 235° |
| 2026-05-01 12:50 | -28.36629 | 122.85222 | 6193 ft | 177 kts | 235° |
| 2026-05-01 12:50 | -28.37300 | 122.84055 | 6199 ft | 177 kts | 234° |
| 2026-05-01 12:50 | -28.37971 | 122.82888 | 6201 ft | 176 kts | 235° |
| 2026-05-01 12:51 | -28.38641 | 122.81722 | 6204 ft | 177 kts | 235° |
| 2026-05-01 12:51 | -28.39313 | 122.80554 | 6203 ft | 177 kts | 234° |
| 2026-05-01 12:51 | -28.40656 | 122.78215 | 6199 ft | 177 kts | 234° |
| 2026-05-01 12:52 | -28.41327 | 122.77046 | 6197 ft | 176 kts | 234° |
| 2026-05-01 12:52 | -28.42666 | 122.74726 | 6201 ft | 176 kts | 234° |
| 2026-05-01 12:52 | -28.43335 | 122.73567 | 6201 ft | 175 kts | 234° |
| 2026-05-01 12:53 | -28.44671 | 122.71239 | 6200 ft | 176 kts | 234° |
| 2026-05-01 12:53 | -28.45337 | 122.70076 | 6204 ft | 176 kts | 234° |
| 2026-05-01 12:53 | -28.46005 | 122.68909 | 6204 ft | 176 kts | 234° |
| 2026-05-01 12:54 | -28.46675 | 122.67740 | 6205 ft | 177 kts | 234° |
| 2026-05-01 12:54 | -28.48018 | 122.65395 | 6204 ft | 177 kts | 234° |
| 2026-05-01 12:54 | -28.48690 | 122.64221 | 6206 ft | 177 kts | 234° |
| 2026-05-01 12:55 | -28.50024 | 122.61888 | 6208 ft | 177 kts | 234° |
| 2026-05-01 12:55 | -28.50695 | 122.60713 | 6208 ft | 177 kts | 234° |
| 2026-05-01 12:55 | -28.51368 | 122.59536 | 6214 ft | 178 kts | 234° |
| 2026-05-01 12:56 | -28.52043 | 122.58356 | 6211 ft | 178 kts | 234° |
| 2026-05-01 12:56 | -28.52720 | 122.57171 | 6208 ft | 178 kts | 234° |
| 2026-05-01 12:56 | -28.53396 | 122.55988 | 6208 ft | 179 kts | 233° |
| 2026-05-01 12:56 | -28.54072 | 122.54804 | 6206 ft | 178 kts | 234° |
| 2026-05-01 12:57 | -28.54746 | 122.53622 | 6217 ft | 178 kts | 233° |
| 2026-05-01 12:57 | -28.56099 | 122.51251 | 6212 ft | 179 kts | 234° |
| 2026-05-01 12:57 | -28.56777 | 122.50065 | 6212 ft | 179 kts | 234° |
| 2026-05-01 12:58 | -28.57454 | 122.48875 | 6214 ft | 179 kts | 234° |
| 2026-05-01 12:58 | -28.58132 | 122.47686 | 6218 ft | 179 kts | 234° |
| 2026-05-01 12:58 | -28.58811 | 122.46494 | 6214 ft | 179 kts | 234° |
| 2026-05-01 12:59 | -28.60169 | 122.44111 | 6217 ft | 180 kts | 233° |
| 2026-05-01 12:59 | -28.60848 | 122.42918 | 6214 ft | 180 kts | 233° |
| 2026-05-01 12:59 | -28.62219 | 122.40552 | 6218 ft | 179 kts | 232° |
| 2026-05-01 13:00 | -28.63658 | 122.38259 | 6217 ft | 177 kts | 231° |
| 2026-05-01 13:00 | -28.64374 | 122.37115 | 6220 ft | 178 kts | 231° |
| 2026-05-01 13:01 | -28.65803 | 122.34811 | 6227 ft | 178 kts | 231° |
| 2026-05-01 13:01 | -28.66517 | 122.33653 | 6222 ft | 179 kts | 231° |
| 2026-05-01 13:01 | -28.67937 | 122.31349 | 6222 ft | 179 kts | 231° |
| 2026-05-01 13:02 | -28.68654 | 122.30186 | 6222 ft | 179 kts | 231° |
| 2026-05-01 13:07 | -28.83515 | 122.05971 | 6226 ft | 181 kts | 230° |
| 2026-05-01 13:07 | -28.84235 | 122.04794 | 6227 ft | 181 kts | 231° |
| 2026-05-01 13:07 | -28.84954 | 122.03618 | 6229 ft | 181 kts | 230° |
| 2026-05-01 13:08 | -28.85675 | 122.02441 | 6229 ft | 181 kts | 230° |
| 2026-05-01 13:08 | -28.86385 | 122.01280 | 6228 ft | 181 kts | 230° |
| 2026-05-01 13:08 | -28.87104 | 122.00102 | 6232 ft | 181 kts | 230° |
| 2026-05-01 13:08 | -28.87823 | 121.98925 | 6233 ft | 181 kts | 231° |
| 2026-05-01 13:09 | -28.88543 | 121.97746 | 6230 ft | 181 kts | 231° |
| 2026-05-01 13:09 | -28.89264 | 121.96566 | 6234 ft | 181 kts | 231° |
| 2026-05-01 13:09 | -28.89982 | 121.95390 | 6231 ft | 181 kts | 230° |
| 2026-05-01 13:09 | -28.90700 | 121.94214 | 6233 ft | 180 kts | 230° |
| 2026-05-01 13:10 | -28.91416 | 121.93040 | 6234 ft | 180 kts | 231° |
| 2026-05-01 13:10 | -28.92132 | 121.91866 | 6237 ft | 181 kts | 230° |
| 2026-05-01 13:10 | -28.92850 | 121.90689 | 6232 ft | 181 kts | 230° |
| 2026-05-01 13:10 | -28.93568 | 121.89512 | 6231 ft | 180 kts | 230° |
| 2026-05-01 13:11 | -28.94282 | 121.88339 | 6234 ft | 180 kts | 230° |
| 2026-05-01 13:11 | -28.95000 | 121.87162 | 6235 ft | 180 kts | 230° |
| 2026-05-01 13:11 | -28.95717 | 121.85985 | 6236 ft | 181 kts | 230° |
| 2026-05-01 13:11 | -28.96435 | 121.84806 | 6235 ft | 181 kts | 230° |
| 2026-05-01 13:12 | -28.97152 | 121.83629 | 6237 ft | 181 kts | 230° |
| 2026-05-01 13:12 | -28.97870 | 121.82449 | 6237 ft | 181 kts | 230° |
| 2026-05-01 13:12 | -28.98587 | 121.81271 | 6244 ft | 181 kts | 230° |
| 2026-05-01 13:12 | -28.99306 | 121.80088 | 6245 ft | 181 kts | 230° |
| 2026-05-01 13:13 | -29.00025 | 121.78905 | 6236 ft | 181 kts | 230° |
| 2026-05-01 13:13 | -29.00745 | 121.77721 | 6242 ft | 182 kts | 230° |
| 2026-05-01 13:13 | -29.01467 | 121.76534 | 6243 ft | 182 kts | 230° |
| 2026-05-01 13:13 | -29.02189 | 121.75344 | 6246 ft | 183 kts | 230° |
| 2026-05-01 13:14 | -29.02914 | 121.74151 | 6244 ft | 183 kts | 230° |
| 2026-05-01 13:14 | -29.03638 | 121.72958 | 6239 ft | 182 kts | 230° |
| 2026-05-01 13:14 | -29.04359 | 121.71770 | 6240 ft | 182 kts | 230° |
| 2026-05-01 13:14 | -29.05083 | 121.70579 | 6243 ft | 182 kts | 230° |
| 2026-05-01 13:15 | -29.05794 | 121.69407 | 6246 ft | 182 kts | 230° |
| 2026-05-01 13:15 | -29.06514 | 121.68219 | 6244 ft | 182 kts | 230° |
| 2026-05-01 13:15 | -29.07234 | 121.67031 | 6242 ft | 182 kts | 230° |
| 2026-05-01 13:15 | -29.07954 | 121.65844 | 6241 ft | 182 kts | 230° |
| 2026-05-01 13:16 | -29.08675 | 121.64655 | 6243 ft | 182 kts | 230° |
| 2026-05-01 13:16 | -29.09395 | 121.63466 | 6240 ft | 182 kts | 230° |
| 2026-05-01 13:16 | -29.10115 | 121.62277 | 6241 ft | 182 kts | 230° |
| 2026-05-01 13:17 | -29.12271 | 121.58715 | 6246 ft | 181 kts | 230° |
| 2026-05-01 13:17 | -29.12988 | 121.57530 | 6245 ft | 181 kts | 230° |
| 2026-05-01 13:18 | -29.14423 | 121.55157 | 6242 ft | 181 kts | 230° |
| 2026-05-01 13:18 | -29.15142 | 121.53968 | 6246 ft | 182 kts | 230° |
| 2026-05-01 13:18 | -29.15860 | 121.52780 | 6247 ft | 182 kts | 230° |
| 2026-05-01 13:18 | -29.16579 | 121.51589 | 6246 ft | 182 kts | 230° |
| 2026-05-01 13:19 | -29.17298 | 121.50399 | 6246 ft | 182 kts | 230° |
| 2026-05-01 13:19 | -29.18018 | 121.49208 | 6245 ft | 182 kts | 230° |
| 2026-05-01 13:19 | -29.19457 | 121.46822 | 6245 ft | 182 kts | 230° |
| 2026-05-01 13:20 | -29.20177 | 121.45629 | 6245 ft | 182 kts | 230° |
| 2026-05-01 13:20 | -29.20895 | 121.44437 | 6246 ft | 182 kts | 230° |
| 2026-05-01 13:20 | -29.21615 | 121.43243 | 6245 ft | 182 kts | 230° |
| 2026-05-01 13:21 | -29.23044 | 121.40874 | 6247 ft | 182 kts | 230° |
| 2026-05-01 13:21 | -29.23764 | 121.39678 | 6244 ft | 182 kts | 230° |
| 2026-05-01 13:21 | -29.24483 | 121.38483 | 6247 ft | 182 kts | 230° |
| 2026-05-01 13:21 | -29.25204 | 121.37285 | 6244 ft | 182 kts | 230° |
| 2026-05-01 13:22 | -29.25924 | 121.36090 | 6246 ft | 182 kts | 230° |
| 2026-05-01 13:22 | -29.26642 | 121.34895 | 6246 ft | 182 kts | 230° |
| 2026-05-01 13:22 | -29.27359 | 121.33703 | 6244 ft | 181 kts | 231° |
| 2026-05-01 13:22 | -29.28074 | 121.32513 | 6246 ft | 181 kts | 231° |
| 2026-05-01 13:23 | -29.28790 | 121.31323 | 6245 ft | 181 kts | 230° |
| 2026-05-01 13:23 | -29.29504 | 121.30134 | 6248 ft | 181 kts | 230° |
| 2026-05-01 13:23 | -29.30221 | 121.28942 | 6247 ft | 181 kts | 230° |
| 2026-05-01 13:23 | -29.30938 | 121.27750 | 6248 ft | 181 kts | 231° |
| 2026-05-01 13:24 | -29.31653 | 121.26558 | 6253 ft | 182 kts | 231° |
| 2026-05-01 13:24 | -29.32370 | 121.25364 | 6251 ft | 182 kts | 230° |
| 2026-05-01 13:24 | -29.33086 | 121.24171 | 6248 ft | 182 kts | 231° |
| 2026-05-01 13:25 | -29.34519 | 121.21781 | 6250 ft | 182 kts | 231° |
| 2026-05-01 13:25 | -29.35236 | 121.20585 | 6250 ft | 182 kts | 231° |
| 2026-05-01 13:25 | -29.35953 | 121.19390 | 6251 ft | 182 kts | 231° |
| 2026-05-01 13:25 | -29.36669 | 121.18195 | 6252 ft | 182 kts | 231° |
| 2026-05-01 13:26 | -29.37388 | 121.16995 | 6254 ft | 182 kts | 231° |
| 2026-05-01 13:26 | -29.38094 | 121.15816 | 6255 ft | 182 kts | 231° |
| 2026-05-01 13:26 | -29.38822 | 121.14601 | 6254 ft | 182 kts | 231° |
| 2026-05-01 13:26 | -29.39530 | 121.13418 | 6256 ft | 183 kts | 231° |
| 2026-05-01 13:27 | -29.40249 | 121.12216 | 6252 ft | 183 kts | 231° |
| 2026-05-01 13:27 | -29.40968 | 121.11015 | 6253 ft | 183 kts | 231° |
| 2026-05-01 13:27 | -29.42406 | 121.08608 | 6254 ft | 183 kts | 231° |
| 2026-05-01 13:28 | -29.43846 | 121.06198 | 6249 ft | 183 kts | 231° |
| 2026-05-01 13:28 | -29.44568 | 121.04991 | 6254 ft | 183 kts | 231° |
| 2026-05-01 13:29 | -29.46009 | 121.02577 | 6255 ft | 184 kts | 231° |
| 2026-05-01 13:29 | -29.47452 | 121.00159 | 6253 ft | 183 kts | 231° |
| 2026-05-01 13:30 | -29.50331 | 120.95328 | 6256 ft | 183 kts | 231° |
| 2026-05-01 13:31 | -29.51769 | 120.92914 | 6255 ft | 183 kts | 231° |
| 2026-05-01 13:31 | -29.53927 | 120.89290 | 6258 ft | 184 kts | 231° |
| 2026-05-01 13:32 | -29.55370 | 120.86865 | 6258 ft | 184 kts | 231° |
| 2026-05-01 13:33 | -29.57535 | 120.83220 | 6247 ft | 185 kts | 231° |
| 2026-05-01 13:33 | -29.59025 | 120.80715 | 6050 ft | 191 kts | 231° |
| 2026-05-01 13:34 | -29.60514 | 120.78201 | 6011 ft | 189 kts | 231° |
| 2026-05-01 13:34 | -29.61976 | 120.75733 | 6005 ft | 187 kts | 231° |
| 2026-05-01 13:35 | -29.63440 | 120.73265 | 6002 ft | 186 kts | 231° |
| 2026-05-01 13:35 | -29.64169 | 120.72035 | 6004 ft | 186 kts | 231° |
| 2026-05-01 13:35 | -29.65629 | 120.69572 | 6001 ft | 186 kts | 231° |
| 2026-05-01 13:36 | -29.66355 | 120.68345 | 6000 ft | 186 kts | 231° |
| 2026-05-01 13:36 | -29.67083 | 120.67116 | 6003 ft | 186 kts | 231° |
| 2026-05-01 13:36 | -29.68536 | 120.64660 | 6001 ft | 185 kts | 231° |
| 2026-05-01 13:37 | -29.69261 | 120.63433 | 6001 ft | 185 kts | 231° |
| 2026-05-01 13:37 | -29.69987 | 120.62206 | 6000 ft | 185 kts | 231° |
| 2026-05-01 13:37 | -29.70714 | 120.60977 | 6000 ft | 186 kts | 231° |
| 2026-05-01 13:37 | -29.71441 | 120.59749 | 6001 ft | 186 kts | 231° |
| 2026-05-01 13:38 | -29.72881 | 120.57308 | 6001 ft | 186 kts | 231° |
| 2026-05-01 13:38 | -29.73617 | 120.56059 | 6002 ft | 186 kts | 231° |
| 2026-05-01 13:38 | -29.74333 | 120.54845 | 6002 ft | 186 kts | 231° |
| 2026-05-01 13:39 | -29.75060 | 120.53613 | 6006 ft | 186 kts | 231° |
| 2026-05-01 13:39 | -29.75788 | 120.52380 | 6007 ft | 186 kts | 231° |
| 2026-05-01 13:39 | -29.76516 | 120.51143 | 6007 ft | 186 kts | 232° |
| 2026-05-01 13:39 | -29.77244 | 120.49909 | 6005 ft | 187 kts | 231° |
| 2026-05-01 13:40 | -29.77972 | 120.48673 | 6001 ft | 187 kts | 232° |
| 2026-05-01 13:40 | -29.78701 | 120.47435 | 6002 ft | 187 kts | 232° |
| 2026-05-01 13:40 | -29.79431 | 120.46195 | 6004 ft | 187 kts | 232° |
| 2026-05-01 13:40 | -29.80161 | 120.44954 | 6003 ft | 187 kts | 231° |
| 2026-05-01 13:41 | -29.80892 | 120.43713 | 6004 ft | 187 kts | 232° |
| 2026-05-01 13:41 | -29.81622 | 120.42471 | 6003 ft | 187 kts | 232° |
| 2026-05-01 13:41 | -29.82351 | 120.41230 | 6004 ft | 187 kts | 232° |
| 2026-05-01 13:41 | -29.83081 | 120.39990 | 6003 ft | 187 kts | 232° |
| 2026-05-01 13:42 | -29.83810 | 120.38749 | 6003 ft | 187 kts | 232° |
| 2026-05-01 13:42 | -29.84538 | 120.37509 | 6005 ft | 187 kts | 232° |
| 2026-05-01 13:42 | -29.85267 | 120.36269 | 6004 ft | 187 kts | 231° |
| 2026-05-01 13:42 | -29.85998 | 120.35025 | 6003 ft | 187 kts | 232° |
| 2026-05-01 13:43 | -29.86727 | 120.33782 | 6004 ft | 187 kts | 232° |
| 2026-05-01 13:43 | -29.87456 | 120.32540 | 6002 ft | 187 kts | 232° |
| 2026-05-01 13:43 | -29.88186 | 120.31295 | 6005 ft | 188 kts | 232° |
| 2026-05-01 13:43 | -29.88918 | 120.30048 | 6006 ft | 188 kts | 232° |
| 2026-05-01 13:44 | -29.89641 | 120.28814 | 6007 ft | 188 kts | 232° |
| 2026-05-01 13:44 | -29.90377 | 120.27558 | 6006 ft | 189 kts | 232° |
| 2026-05-01 13:44 | -29.91113 | 120.26303 | 6004 ft | 189 kts | 232° |
| 2026-05-01 13:44 | -29.91847 | 120.25048 | 6008 ft | 189 kts | 232° |
| 2026-05-01 13:45 | -29.92584 | 120.23790 | 6005 ft | 189 kts | 232° |
| 2026-05-01 13:45 | -29.93320 | 120.22532 | 6006 ft | 189 kts | 232° |
| 2026-05-01 13:45 | -29.94057 | 120.21273 | 6007 ft | 189 kts | 232° |
| 2026-05-01 13:45 | -29.94793 | 120.20014 | 6009 ft | 189 kts | 231° |
| 2026-05-01 13:46 | -29.95528 | 120.18757 | 6004 ft | 189 kts | 232° |
| 2026-05-01 13:46 | -29.96263 | 120.17500 | 6002 ft | 189 kts | 231° |
| 2026-05-01 13:46 | -29.96996 | 120.16246 | 6004 ft | 188 kts | 231° |
| 2026-05-01 13:46 | -29.97728 | 120.14993 | 6003 ft | 188 kts | 232° |
| 2026-05-01 13:47 | -29.98459 | 120.13742 | 6006 ft | 188 kts | 232° |
| 2026-05-01 13:47 | -29.99181 | 120.12505 | 6008 ft | 188 kts | 231° |
| 2026-05-01 13:47 | -29.99912 | 120.11252 | 6007 ft | 188 kts | 231° |
| 2026-05-01 13:47 | -30.00642 | 120.10003 | 6006 ft | 188 kts | 232° |
| 2026-05-01 13:48 | -30.01371 | 120.08752 | 6008 ft | 188 kts | 231° |
| 2026-05-01 13:48 | -30.02104 | 120.07497 | 6006 ft | 188 kts | 232° |
| 2026-05-01 13:48 | -30.02833 | 120.06246 | 6007 ft | 188 kts | 231° |
| 2026-05-01 13:48 | -30.03318 | 120.05415 | 6007 ft | 188 kts | 232° |
| 2026-05-01 13:49 | -30.04297 | 120.03734 | 6011 ft | 189 kts | 231° |
| 2026-05-01 13:49 | -30.04782 | 120.02901 | 6011 ft | 189 kts | 232° |
| 2026-05-01 13:49 | -30.05516 | 120.01640 | 6014 ft | 189 kts | 231° |
| 2026-05-01 13:49 | -30.06495 | 119.99960 | 6012 ft | 189 kts | 231° |
| 2026-05-01 13:50 | -30.06979 | 119.99126 | 6009 ft | 189 kts | 231° |
| 2026-05-01 13:50 | -30.07711 | 119.97869 | 6012 ft | 189 kts | 231° |
| 2026-05-01 13:50 | -30.08441 | 119.96614 | 6012 ft | 188 kts | 231° |
| 2026-05-01 13:50 | -30.09169 | 119.95361 | 6014 ft | 188 kts | 231° |
| 2026-05-01 13:51 | -30.10135 | 119.93701 | 6013 ft | 188 kts | 231° |
| 2026-05-01 13:51 | -30.10627 | 119.92854 | 6013 ft | 188 kts | 231° |
| 2026-05-01 13:51 | -30.11354 | 119.91602 | 6013 ft | 188 kts | 231° |
| 2026-05-01 13:51 | -30.12082 | 119.90347 | 6016 ft | 188 kts | 231° |
| 2026-05-01 13:52 | -30.12812 | 119.89091 | 6017 ft | 188 kts | 231° |
| 2026-05-01 13:52 | -30.13540 | 119.87835 | 6015 ft | 188 kts | 231° |
| 2026-05-01 13:52 | -30.14270 | 119.86579 | 6017 ft | 188 kts | 231° |
| 2026-05-01 13:52 | -30.14988 | 119.85338 | 6016 ft | 188 kts | 231° |
| 2026-05-01 13:53 | -30.15727 | 119.84065 | 6014 ft | 188 kts | 231° |
| 2026-05-01 13:53 | -30.17173 | 119.81570 | 6018 ft | 188 kts | 231° |
| 2026-05-01 13:53 | -30.17901 | 119.80314 | 6015 ft | 188 kts | 231° |
| 2026-05-01 13:54 | -30.18627 | 119.79060 | 6021 ft | 188 kts | 231° |
| 2026-05-01 13:54 | -30.19354 | 119.77805 | 6015 ft | 188 kts | 231° |
| 2026-05-01 13:54 | -30.20078 | 119.76554 | 6019 ft | 187 kts | 231° |
| 2026-05-01 13:54 | -30.20802 | 119.75302 | 6021 ft | 187 kts | 231° |
| 2026-05-01 13:55 | -30.21526 | 119.74051 | 6019 ft | 187 kts | 231° |
| 2026-05-01 13:55 | -30.22249 | 119.72801 | 6016 ft | 187 kts | 231° |
| 2026-05-01 13:55 | -30.22971 | 119.71552 | 6018 ft | 187 kts | 231° |
| 2026-05-01 13:55 | -30.23692 | 119.70305 | 6018 ft | 187 kts | 231° |
| 2026-05-01 13:56 | -30.24413 | 119.69055 | 6021 ft | 187 kts | 231° |
| 2026-05-01 13:56 | -30.25132 | 119.67810 | 6017 ft | 186 kts | 231° |
| 2026-05-01 13:56 | -30.25844 | 119.66578 | 6024 ft | 186 kts | 231° |
| 2026-05-01 13:56 | -30.26563 | 119.65332 | 6022 ft | 186 kts | 231° |
| 2026-05-01 13:57 | -30.27283 | 119.64085 | 6022 ft | 186 kts | 231° |
| 2026-05-01 13:57 | -30.28002 | 119.62838 | 6023 ft | 186 kts | 231° |
| 2026-05-01 13:57 | -30.28721 | 119.61591 | 6025 ft | 186 kts | 231° |
| 2026-05-01 13:57 | -30.29440 | 119.60343 | 6024 ft | 186 kts | 231° |
| 2026-05-01 13:58 | -30.30160 | 119.59094 | 6028 ft | 187 kts | 231° |
| 2026-05-01 13:58 | -30.30884 | 119.57838 | 6026 ft | 187 kts | 231° |
| 2026-05-01 13:58 | -30.31607 | 119.56582 | 6024 ft | 187 kts | 231° |
| 2026-05-01 13:58 | -30.32330 | 119.55326 | 6025 ft | 188 kts | 231° |
| 2026-05-01 13:59 | -30.33053 | 119.54070 | 6025 ft | 188 kts | 231° |
| 2026-05-01 13:59 | -30.33775 | 119.52813 | 6019 ft | 187 kts | 231° |
| 2026-05-01 13:59 | -30.34495 | 119.51559 | 6026 ft | 187 kts | 231° |
| 2026-05-01 13:59 | -30.35218 | 119.50303 | 6025 ft | 187 kts | 231° |
| 2026-05-01 14:00 | -30.35938 | 119.49050 | 6020 ft | 187 kts | 231° |
| 2026-05-01 14:00 | -30.36656 | 119.47800 | 6023 ft | 187 kts | 231° |
| 2026-05-01 14:00 | -30.37366 | 119.46565 | 6028 ft | 186 kts | 231° |
| 2026-05-01 14:00 | -30.38082 | 119.45316 | 6028 ft | 186 kts | 231° |
| 2026-05-01 14:01 | -30.38796 | 119.44063 | 6034 ft | 186 kts | 231° |
| 2026-05-01 14:01 | -30.39517 | 119.42818 | 6029 ft | 186 kts | 230° |
| 2026-05-01 14:01 | -30.40240 | 119.41575 | 6026 ft | 186 kts | 230° |
| 2026-05-01 14:01 | -30.40960 | 119.40329 | 6031 ft | 186 kts | 231° |
| 2026-05-01 14:02 | -30.41678 | 119.39082 | 6033 ft | 186 kts | 231° |
| 2026-05-01 14:02 | -30.42394 | 119.37833 | 6027 ft | 186 kts | 231° |
| 2026-05-01 14:02 | -30.43112 | 119.36582 | 6031 ft | 186 kts | 231° |
| 2026-05-01 14:02 | -30.43829 | 119.35330 | 6032 ft | 187 kts | 231° |
| 2026-05-01 14:03 | -30.44549 | 119.34072 | 6029 ft | 187 kts | 231° |
| 2026-05-01 14:03 | -30.45268 | 119.32816 | 6034 ft | 187 kts | 231° |
| 2026-05-01 14:03 | -30.45989 | 119.31554 | 6031 ft | 188 kts | 231° |
| 2026-05-01 14:03 | -30.46705 | 119.30289 | 6026 ft | 188 kts | 231° |
| 2026-05-01 14:04 | -30.47424 | 119.29022 | 6028 ft | 188 kts | 231° |
| 2026-05-01 14:04 | -30.48137 | 119.27758 | 6030 ft | 188 kts | 233° |
| 2026-05-01 14:04 | -30.48810 | 119.26456 | 6030 ft | 188 kts | 235° |
| 2026-05-01 14:04 | -30.49468 | 119.25168 | 6029 ft | 188 kts | 234° |
| 2026-05-01 14:05 | -30.50162 | 119.23881 | 6030 ft | 188 kts | 233° |
| 2026-05-01 14:05 | -30.50872 | 119.22611 | 6030 ft | 188 kts | 232° |
| 2026-05-01 14:05 | -30.51589 | 119.21348 | 6029 ft | 187 kts | 232° |
| 2026-05-01 14:05 | -30.52307 | 119.20088 | 6031 ft | 187 kts | 232° |
| 2026-05-01 14:06 | -30.53028 | 119.18827 | 6031 ft | 187 kts | 232° |
| 2026-05-01 14:06 | -30.53747 | 119.17567 | 6033 ft | 187 kts | 232° |
| 2026-05-01 14:06 | -30.54465 | 119.16306 | 6033 ft | 187 kts | 232° |
| 2026-05-01 14:06 | -30.55184 | 119.15044 | 6030 ft | 187 kts | 232° |
| 2026-05-01 14:07 | -30.55902 | 119.13786 | 6033 ft | 187 kts | 232° |
| 2026-05-01 14:07 | -30.56620 | 119.12525 | 6033 ft | 187 kts | 232° |
| 2026-05-01 14:07 | -30.57351 | 119.11269 | 6032 ft | 187 kts | 230° |
| 2026-05-01 14:08 | -30.58886 | 119.08826 | 6035 ft | 187 kts | 230° |
| 2026-05-01 14:08 | -30.59628 | 119.07582 | 6034 ft | 188 kts | 231° |
| 2026-05-01 14:08 | -30.60346 | 119.06342 | 6033 ft | 188 kts | 231° |
| 2026-05-01 14:08 | -30.61068 | 119.05078 | 6034 ft | 188 kts | 231° |
| 2026-05-01 14:09 | -30.61788 | 119.03812 | 6036 ft | 188 kts | 231° |
| 2026-05-01 14:09 | -30.62505 | 119.02549 | 6038 ft | 188 kts | 232° |
| 2026-05-01 14:09 | -30.63224 | 119.01283 | 6038 ft | 188 kts | 231° |
| 2026-05-01 14:09 | -30.63944 | 119.00014 | 6042 ft | 188 kts | 231° |
| 2026-05-01 14:10 | -30.64664 | 118.98746 | 6033 ft | 188 kts | 231° |
| 2026-05-01 14:10 | -30.65387 | 118.97472 | 6036 ft | 188 kts | 231° |
| 2026-05-01 14:10 | -30.66106 | 118.96203 | 6035 ft | 188 kts | 232° |
| 2026-05-01 14:10 | -30.66828 | 118.94930 | 6036 ft | 188 kts | 231° |
| 2026-05-01 14:11 | -30.67549 | 118.93658 | 6042 ft | 188 kts | 231° |
| 2026-05-01 14:11 | -30.68991 | 118.91113 | 6035 ft | 189 kts | 231° |
| 2026-05-01 14:11 | -30.69712 | 118.89840 | 6036 ft | 189 kts | 232° |
| 2026-05-01 14:12 | -30.70433 | 118.88566 | 6039 ft | 188 kts | 232° |
| 2026-05-01 14:12 | -30.71153 | 118.87293 | 6046 ft | 189 kts | 232° |
| 2026-05-01 14:12 | -30.71893 | 118.86039 | 6037 ft | 188 kts | 229° |
| 2026-05-01 14:12 | -30.72707 | 118.84859 | 6045 ft | 186 kts | 225° |
| 2026-05-01 14:13 | -30.73543 | 118.83710 | 6040 ft | 187 kts | 225° |
| 2026-05-01 14:13 | -30.74090 | 118.82939 | 6048 ft | 187 kts | 226° |
| 2026-05-01 14:13 | -30.75186 | 118.81365 | 6038 ft | 187 kts | 226° |
| 2026-05-01 14:13 | -30.75993 | 118.80201 | 6040 ft | 187 kts | 226° |
| 2026-05-01 14:14 | -30.76813 | 118.79024 | 6041 ft | 187 kts | 226° |
| 2026-05-01 14:14 | -30.77632 | 118.77847 | 6043 ft | 187 kts | 226° |
| 2026-05-01 14:14 | -30.78452 | 118.76670 | 6036 ft | 187 kts | 226° |
| 2026-05-01 14:14 | -30.79269 | 118.75488 | 6044 ft | 187 kts | 227° |
| 2026-05-01 14:15 | -30.80084 | 118.74302 | 6043 ft | 188 kts | 227° |
| 2026-05-01 14:15 | -30.80900 | 118.73119 | 6046 ft | 188 kts | 226° |
| 2026-05-01 14:15 | -30.81720 | 118.71936 | 6045 ft | 188 kts | 226° |
| 2026-05-01 14:15 | -30.82541 | 118.70759 | 6043 ft | 188 kts | 226° |
| 2026-05-01 14:16 | -30.83365 | 118.69581 | 6043 ft | 188 kts | 226° |
| 2026-05-01 14:16 | -30.84189 | 118.68401 | 6040 ft | 188 kts | 226° |
| 2026-05-01 14:16 | -30.85020 | 118.67231 | 6041 ft | 187 kts | 225° |
| 2026-05-01 14:16 | -30.85848 | 118.66066 | 6041 ft | 187 kts | 226° |
| 2026-05-01 14:17 | -30.86670 | 118.64896 | 6051 ft | 187 kts | 226° |
| 2026-05-01 14:17 | -30.87490 | 118.63719 | 6052 ft | 187 kts | 226° |
| 2026-05-01 14:17 | -30.88306 | 118.62542 | 6043 ft | 187 kts | 226° |
| 2026-05-01 14:17 | -30.89121 | 118.61364 | 6050 ft | 187 kts | 226° |
| 2026-05-01 14:18 | -30.89936 | 118.60185 | 6040 ft | 187 kts | 226° |
| 2026-05-01 14:18 | -30.90754 | 118.59004 | 6047 ft | 187 kts | 226° |
| 2026-05-01 14:18 | -30.91572 | 118.57825 | 6045 ft | 187 kts | 226° |
| 2026-05-01 14:18 | -30.92117 | 118.57040 | 6044 ft | 188 kts | 226° |
| 2026-05-01 14:19 | -30.93203 | 118.55474 | 6045 ft | 188 kts | 226° |
| 2026-05-01 14:19 | -30.94039 | 118.54270 | 6047 ft | 189 kts | 227° |
| 2026-05-01 14:19 | -30.94851 | 118.53099 | 6048 ft | 189 kts | 226° |
| 2026-05-01 14:19 | -30.95686 | 118.51894 | 6053 ft | 189 kts | 226° |
| 2026-05-01 14:20 | -30.96510 | 118.50705 | 6047 ft | 189 kts | 227° |
| 2026-05-01 14:20 | -30.98147 | 118.48343 | 6053 ft | 189 kts | 227° |
| 2026-05-01 14:20 | -30.98974 | 118.47149 | 6046 ft | 189 kts | 226° |
| 2026-05-01 14:21 | -30.99799 | 118.45958 | 6043 ft | 189 kts | 227° |
| 2026-05-01 14:21 | -31.00625 | 118.44763 | 6050 ft | 189 kts | 227° |
| 2026-05-01 14:21 | -31.01449 | 118.43572 | 6038 ft | 188 kts | 227° |
| 2026-05-01 14:22 | -31.03095 | 118.41194 | 6042 ft | 188 kts | 226° |
| 2026-05-01 14:22 | -31.03918 | 118.40003 | 6050 ft | 189 kts | 226° |
| 2026-05-01 14:22 | -31.04744 | 118.38817 | 6044 ft | 189 kts | 226° |
| 2026-05-01 14:22 | -31.05571 | 118.37628 | 6042 ft | 189 kts | 226° |
| 2026-05-01 14:23 | -31.06399 | 118.36435 | 6047 ft | 189 kts | 227° |
| 2026-05-01 14:23 | -31.07225 | 118.35239 | 6043 ft | 189 kts | 227° |
| 2026-05-01 14:23 | -31.08051 | 118.34044 | 6042 ft | 189 kts | 227° |
| 2026-05-01 14:23 | -31.08875 | 118.32846 | 6048 ft | 189 kts | 227° |
| 2026-05-01 14:24 | -31.09697 | 118.31646 | 6048 ft | 189 kts | 227° |
| 2026-05-01 14:24 | -31.10519 | 118.30448 | 6051 ft | 189 kts | 227° |
| 2026-05-01 14:24 | -31.11344 | 118.29248 | 6047 ft | 189 kts | 227° |
| 2026-05-01 14:24 | -31.12170 | 118.28049 | 6051 ft | 189 kts | 227° |
| 2026-05-01 14:25 | -31.12995 | 118.26852 | 6051 ft | 189 kts | 227° |
| 2026-05-01 14:25 | -31.13819 | 118.25655 | 6047 ft | 189 kts | 227° |
| 2026-05-01 14:25 | -31.14643 | 118.24458 | 6058 ft | 189 kts | 227° |
| 2026-05-01 14:25 | -31.15466 | 118.23262 | 6055 ft | 189 kts | 227° |
| 2026-05-01 14:26 | -31.16290 | 118.22065 | 6050 ft | 189 kts | 227° |
| 2026-05-01 14:26 | -31.17938 | 118.19669 | 6046 ft | 189 kts | 227° |
| 2026-05-01 14:26 | -31.18751 | 118.18487 | 6050 ft | 189 kts | 227° |
| 2026-05-01 14:27 | -31.19575 | 118.17289 | 6052 ft | 189 kts | 227° |
| 2026-05-01 14:27 | -31.20399 | 118.16089 | 6051 ft | 189 kts | 227° |
| 2026-05-01 14:27 | -31.21224 | 118.14889 | 6050 ft | 190 kts | 227° |
| 2026-05-01 14:28 | -31.22876 | 118.12482 | 6048 ft | 190 kts | 227° |
| 2026-05-01 14:28 | -31.23702 | 118.11278 | 6050 ft | 190 kts | 227° |
| 2026-05-01 14:28 | -31.24527 | 118.10075 | 6052 ft | 190 kts | 227° |
| 2026-05-01 14:28 | -31.25355 | 118.08869 | 6057 ft | 190 kts | 227° |
| 2026-05-01 14:29 | -31.26182 | 118.07663 | 6057 ft | 190 kts | 227° |
| 2026-05-01 14:29 | -31.27007 | 118.06458 | 6050 ft | 190 kts | 227° |
| 2026-05-01 14:30 | -31.29485 | 118.02841 | 6054 ft | 190 kts | 227° |
| 2026-05-01 14:30 | -31.30309 | 118.01637 | 6049 ft | 190 kts | 227° |
| 2026-05-01 14:30 | -31.31137 | 118.00427 | 6055 ft | 190 kts | 227° |
| 2026-05-01 14:31 | -31.32787 | 117.98015 | 6059 ft | 190 kts | 227° |
| 2026-05-01 14:31 | -31.33612 | 117.96808 | 6055 ft | 190 kts | 227° |
| 2026-05-01 14:31 | -31.34439 | 117.95599 | 6053 ft | 190 kts | 227° |
| 2026-05-01 14:31 | -31.35253 | 117.94407 | 6057 ft | 190 kts | 227° |
| 2026-05-01 14:32 | -31.36078 | 117.93200 | 6055 ft | 190 kts | 227° |
| 2026-05-01 14:32 | -31.36635 | 117.92384 | 6058 ft | 190 kts | 227° |
| 2026-05-01 14:32 | -31.37726 | 117.90785 | 6062 ft | 190 kts | 227° |
| 2026-05-01 14:32 | -31.38553 | 117.89574 | 6058 ft | 190 kts | 227° |
| 2026-05-01 14:33 | -31.39378 | 117.88364 | 6062 ft | 190 kts | 227° |
| 2026-05-01 14:33 | -31.40205 | 117.87152 | 6056 ft | 190 kts | 227° |
| 2026-05-01 14:33 | -31.41033 | 117.85938 | 6054 ft | 191 kts | 227° |
| 2026-05-01 14:33 | -31.41860 | 117.84725 | 6062 ft | 191 kts | 227° |
| 2026-05-01 14:34 | -31.42687 | 117.83510 | 6052 ft | 191 kts | 227° |
| 2026-05-01 14:34 | -31.43514 | 117.82296 | 6060 ft | 191 kts | 227° |
| 2026-05-01 14:34 | -31.44340 | 117.81083 | 6055 ft | 191 kts | 227° |
| 2026-05-01 14:34 | -31.45168 | 117.79867 | 6063 ft | 191 kts | 227° |
| 2026-05-01 14:35 | -31.45995 | 117.78652 | 6060 ft | 191 kts | 227° |
| 2026-05-01 14:35 | -31.46823 | 117.77435 | 6061 ft | 191 kts | 227° |
| 2026-05-01 14:35 | -31.47650 | 117.76217 | 6057 ft | 191 kts | 227° |
| 2026-05-01 14:35 | -31.48478 | 117.75000 | 6056 ft | 191 kts | 227° |
| 2026-05-01 14:36 | -31.49295 | 117.73798 | 6059 ft | 191 kts | 227° |
| 2026-05-01 14:36 | -31.50122 | 117.72581 | 6059 ft | 191 kts | 227° |
| 2026-05-01 14:36 | -31.50952 | 117.71360 | 6056 ft | 191 kts | 227° |
| 2026-05-01 14:36 | -31.51780 | 117.70139 | 6059 ft | 191 kts | 227° |
| 2026-05-01 14:37 | -31.52606 | 117.68920 | 6062 ft | 191 kts | 227° |
| 2026-05-01 14:37 | -31.53155 | 117.68112 | 6060 ft | 191 kts | 227° |
| 2026-05-01 14:37 | -31.53983 | 117.66892 | 6064 ft | 191 kts | 227° |
| 2026-05-01 14:37 | -31.54804 | 117.65663 | 6059 ft | 192 kts | 229° |
| 2026-05-01 14:38 | -31.55524 | 117.64340 | 6065 ft | 193 kts | 237° |
| 2026-05-01 14:38 | -31.56153 | 117.62943 | 6066 ft | 193 kts | 238° |
| 2026-05-01 14:38 | -31.56794 | 117.61561 | 6062 ft | 193 kts | 237° |
| 2026-05-01 14:38 | -31.57447 | 117.60183 | 6068 ft | 193 kts | 237° |
| 2026-05-01 14:39 | -31.58105 | 117.58807 | 6060 ft | 193 kts | 237° |
| 2026-05-01 14:39 | -31.58765 | 117.57430 | 6061 ft | 194 kts | 237° |
| 2026-05-01 14:39 | -31.59427 | 117.56053 | 6062 ft | 194 kts | 237° |
| 2026-05-01 14:39 | -31.60088 | 117.54677 | 6072 ft | 194 kts | 237° |
| 2026-05-01 14:40 | -31.60750 | 117.53299 | 6062 ft | 194 kts | 237° |
| 2026-05-01 14:40 | -31.61411 | 117.51918 | 6060 ft | 194 kts | 237° |
| 2026-05-01 14:40 | -31.62070 | 117.50541 | 6066 ft | 194 kts | 237° |
| 2026-05-01 14:40 | -31.62727 | 117.49165 | 6059 ft | 193 kts | 237° |
| 2026-05-01 14:41 | -31.63385 | 117.47789 | 6057 ft | 193 kts | 237° |
| 2026-05-01 14:41 | -31.64042 | 117.46414 | 6068 ft | 193 kts | 237° |
| 2026-05-01 14:41 | -31.64698 | 117.45039 | 6061 ft | 193 kts | 237° |
| 2026-05-01 14:41 | -31.65344 | 117.43684 | 6067 ft | 193 kts | 237° |
| 2026-05-01 14:42 | -31.66000 | 117.42310 | 6071 ft | 193 kts | 237° |
| 2026-05-01 14:42 | -31.66656 | 117.40933 | 6067 ft | 193 kts | 237° |
| 2026-05-01 14:42 | -31.67313 | 117.39556 | 6068 ft | 193 kts | 237° |
| 2026-05-01 14:42 | -31.67968 | 117.38180 | 6062 ft | 193 kts | 237° |
| 2026-05-01 14:43 | -31.68624 | 117.36803 | 6071 ft | 193 kts | 237° |
| 2026-05-01 14:43 | -31.69281 | 117.35424 | 6064 ft | 193 kts | 237° |
| 2026-05-01 14:43 | -31.69937 | 117.34044 | 6070 ft | 193 kts | 237° |
| 2026-05-01 14:43 | -31.70594 | 117.32662 | 6075 ft | 193 kts | 237° |
| 2026-05-01 14:44 | -31.71250 | 117.31285 | 6064 ft | 193 kts | 237° |
| 2026-05-01 14:44 | -31.72564 | 117.28520 | 6035 ft | 195 kts | 237° |
| 2026-05-01 14:44 | -31.73225 | 117.27128 | 6015 ft | 195 kts | 237° |
| 2026-05-01 14:45 | -31.73885 | 117.25737 | 6007 ft | 195 kts | 237° |
| 2026-05-01 14:45 | -31.75202 | 117.22960 | 6001 ft | 194 kts | 237° |
| 2026-05-01 14:45 | -31.75850 | 117.21595 | 5995 ft | 193 kts | 237° |
| 2026-05-01 14:46 | -31.76513 | 117.20196 | 6002 ft | 193 kts | 237° |
| 2026-05-01 14:46 | -31.77815 | 117.17451 | 6001 ft | 194 kts | 237° |
| 2026-05-01 14:46 | -31.78471 | 117.16065 | 6003 ft | 194 kts | 237° |
| 2026-05-01 14:47 | -31.79128 | 117.14677 | 5999 ft | 194 kts | 237° |
| 2026-05-01 14:47 | -31.79784 | 117.13290 | 6004 ft | 194 kts | 237° |
| 2026-05-01 14:47 | -31.80442 | 117.11901 | 6004 ft | 194 kts | 237° |
| 2026-05-01 14:48 | -31.81755 | 117.09123 | 6000 ft | 194 kts | 237° |
| 2026-05-01 14:48 | -31.82410 | 117.07738 | 5999 ft | 194 kts | 237° |
| 2026-05-01 14:48 | -31.83716 | 117.04971 | 5999 ft | 193 kts | 237° |
| 2026-05-01 14:49 | -31.85019 | 117.02210 | 6010 ft | 193 kts | 237° |
| 2026-05-01 14:49 | -31.86321 | 116.99450 | 5998 ft | 193 kts | 237° |
| 2026-05-01 14:50 | -31.87397 | 116.97155 | 6008 ft | 193 kts | 239° |
| 2026-05-01 14:50 | -31.87906 | 116.93444 | 6003 ft | 199 kts | 262° |
| 2026-05-01 14:51 | -31.87994 | 116.91819 | 6001 ft | 199 kts | 263° |
| 2026-05-01 14:51 | -31.88217 | 116.88597 | 6002 ft | 199 kts | 261° |
| 2026-05-01 14:52 | -31.88469 | 116.85356 | 6002 ft | 199 kts | 261° |
| 2026-05-01 14:52 | -31.88594 | 116.83734 | 6006 ft | 199 kts | 261° |
| 2026-05-01 14:52 | -31.88840 | 116.80490 | 6009 ft | 199 kts | 261° |
| 2026-05-01 14:53 | -31.88960 | 116.78867 | 6011 ft | 200 kts | 261° |
| 2026-05-01 14:53 | -31.89080 | 116.77238 | 6006 ft | 200 kts | 261° |
| 2026-05-01 14:53 | -31.89199 | 116.75611 | 6007 ft | 200 kts | 261° |
| 2026-05-01 14:53 | -31.89320 | 116.73982 | 6006 ft | 199 kts | 261° |
| 2026-05-01 14:54 | -31.89440 | 116.72357 | 6006 ft | 199 kts | 261° |
| 2026-05-01 14:54 | -31.89560 | 116.70731 | 6009 ft | 199 kts | 261° |
| 2026-05-01 14:54 | -31.89677 | 116.69107 | 6002 ft | 199 kts | 261° |
| 2026-05-01 14:54 | -31.89796 | 116.67487 | 6004 ft | 199 kts | 261° |
| 2026-05-01 14:55 | -31.89914 | 116.65866 | 6013 ft | 199 kts | 261° |
| 2026-05-01 14:55 | -31.90032 | 116.64247 | 6010 ft | 199 kts | 261° |
| 2026-05-01 14:55 | -31.90150 | 116.62626 | 6006 ft | 198 kts | 261° |
| 2026-05-01 14:55 | -31.90267 | 116.61007 | 6011 ft | 198 kts | 261° |
| 2026-05-01 14:56 | -31.90385 | 116.59392 | 6011 ft | 198 kts | 261° |
| 2026-05-01 14:56 | -31.90502 | 116.57774 | 6010 ft | 198 kts | 261° |
| 2026-05-01 14:56 | -31.90619 | 116.56151 | 6011 ft | 198 kts | 261° |
| 2026-05-01 14:56 | -31.90735 | 116.54533 | 6016 ft | 198 kts | 261° |
| 2026-05-01 14:57 | -31.90851 | 116.52915 | 6010 ft | 199 kts | 261° |
| 2026-05-01 14:57 | -31.91082 | 116.49676 | 6014 ft | 199 kts | 261° |
| 2026-05-01 14:57 | -31.91196 | 116.48052 | 6013 ft | 199 kts | 261° |
| 2026-05-01 14:58 | -31.91312 | 116.46433 | 6010 ft | 199 kts | 261° |
| 2026-05-01 14:58 | -31.91429 | 116.44811 | 6015 ft | 199 kts | 261° |
| 2026-05-01 14:58 | -31.91544 | 116.43212 | 6016 ft | 199 kts | 261° |
| 2026-05-01 14:58 | -31.91659 | 116.41584 | 6015 ft | 200 kts | 261° |
| 2026-05-01 14:59 | -31.91776 | 116.39937 | 6008 ft | 199 kts | 261° |
| 2026-05-01 14:59 | -31.91890 | 116.38333 | 6006 ft | 199 kts | 261° |
| 2026-05-01 14:59 | -31.92004 | 116.36717 | 6007 ft | 198 kts | 261° |
| 2026-05-01 14:59 | -31.92117 | 116.35101 | 6013 ft | 198 kts | 261° |
| 2026-05-01 15:00 | -31.92345 | 116.31865 | 6013 ft | 199 kts | 261° |
| 2026-05-01 15:00 | -31.92459 | 116.30243 | 6012 ft | 199 kts | 261° |
| 2026-05-01 15:00 | -31.92573 | 116.28620 | 6013 ft | 199 kts | 261° |
| 2026-05-01 15:01 | -31.92686 | 116.27000 | 6016 ft | 199 kts | 261° |
| 2026-05-01 15:01 | -31.92798 | 116.25378 | 6012 ft | 199 kts | 261° |
| 2026-05-01 15:01 | -31.92910 | 116.23751 | 6004 ft | 199 kts | 261° |
| 2026-05-01 15:01 | -31.93023 | 116.22132 | 6006 ft | 198 kts | 261° |
| 2026-05-01 15:02 | -31.93134 | 116.20518 | 6005 ft | 198 kts | 261° |
| 2026-05-01 15:02 | -31.93208 | 116.19451 | 6008 ft | 198 kts | 261° |
| 2026-05-01 15:02 | -31.93358 | 116.17293 | 6007 ft | 198 kts | 261° |
| 2026-05-01 15:02 | -31.93471 | 116.15678 | 6005 ft | 198 kts | 261° |
| 2026-05-01 15:03 | -31.93581 | 116.14064 | 6007 ft | 198 kts | 261° |
| 2026-05-01 15:03 | -31.93692 | 116.12448 | 5982 ft | 199 kts | 261° |
| 2026-05-01 15:03 | -31.93801 | 116.10842 | 5734 ft | 195 kts | 262° |
| 2026-05-01 15:03 | -31.93907 | 116.09254 | 5476 ft | 193 kts | 262° |
| 2026-05-01 15:04 | -31.94012 | 116.07683 | 5218 ft | 192 kts | 262° |
| 2026-05-01 15:04 | -31.94120 | 116.06116 | 4960 ft | 192 kts | 262° |
| 2026-05-01 15:04 | -31.94227 | 116.04554 | 4690 ft | 191 kts | 262° |
| 2026-05-01 15:04 | -31.94332 | 116.02993 | 4434 ft | 191 kts | 262° |
| 2026-05-01 15:05 | -31.94439 | 116.01432 | 4177 ft | 191 kts | 262° |
| 2026-05-01 15:05 | -31.94544 | 115.99879 | 3918 ft | 189 kts | 262° |
| 2026-05-01 15:05 | -31.94646 | 115.98358 | 3664 ft | 188 kts | 262° |
| 2026-05-01 15:05 | -31.94749 | 115.96832 | 3409 ft | 186 kts | 262° |
| 2026-05-01 15:06 | -31.94852 | 115.95321 | 3148 ft | 185 kts | 262° |
| 2026-05-01 15:06 | -31.94975 | 115.93791 | 2887 ft | 184 kts | 258° |
| 2026-05-01 15:06 | -31.95344 | 115.92394 | 2632 ft | 180 kts | 245° |
| 2026-05-01 15:06 | -31.95802 | 115.91026 | 2377 ft | 176 kts | 243° |
| 2026-05-01 15:07 | -31.96230 | 115.89690 | 2108 ft | 174 kts | 244° |
| 2026-05-01 15:07 | -31.96629 | 115.88370 | 1849 ft | 172 kts | 245° |
| 2026-05-01 15:07 | -31.96764 | 115.86972 | 1653 ft | 173 kts | 268° |
| 2026-05-01 15:07 | -31.96689 | 115.85592 | 1574 ft | 166 kts | 270° |
| 2026-05-01 15:08 | -31.96613 | 115.84256 | 1529 ft | 158 kts | 261° |
| 2026-05-01 15:08 | -31.97103 | 115.83132 | 1520 ft | 159 kts | 215° |
| 2026-05-01 15:08 | -31.98127 | 115.82753 | 1518 ft | 159 kts | 173° |
| 2026-05-01 15:08 | -31.99138 | 115.83273 | 1533 ft | 162 kts | 147° |
| 2026-05-01 15:09 | -32.00052 | 115.84064 | 1533 ft | 164 kts | 143° |
| 2026-05-01 15:09 | -32.00983 | 115.84856 | 1528 ft | 165 kts | 150° |
| 2026-05-01 15:09 | -32.02032 | 115.85403 | 1525 ft | 165 kts | 160° |
| 2026-05-01 15:09 | -32.03120 | 115.85851 | 1527 ft | 166 kts | 161° |
| 2026-05-01 15:10 | -32.04214 | 115.86294 | 1521 ft | 166 kts | 156° |
| 2026-05-01 15:10 | -32.05848 | 115.88011 | 1263 ft | 150 kts | 135° |
| 2026-05-01 15:10 | -32.06569 | 115.88874 | 1043 ft | 143 kts | 138° |
| 2026-05-01 15:11 | -32.07275 | 115.89599 | 888 ft | 129 kts | 146° |
| 2026-05-01 15:11 | -32.08833 | 115.89338 | 462 ft | 119 kts | 229° |
| 2026-05-01 15:11 | -32.09273 | 115.88651 | 178 ft | 95 kts | 230° |
| 2026-05-01 15:12 | -32.09602 | 115.88113 | 94 ft | 64 kts | 233° |
| 2026-05-01 15:12 | -32.09794 | 115.87685 | 95 ft | 11 kts | 324° |
| 2026-05-01 15:12 | -32.09736 | 115.87698 | 95 ft | 10 kts | 53° |
| 2026-05-01 15:13 | -32.09606 | 115.87916 | 95 ft | 12 kts | 52° |
| 2026-05-01 15:14 | -32.09506 | 115.88073 | 95 ft | 12 kts | 52° |
| 2026-05-01 15:14 | -32.09455 | 115.88158 | 95 ft | 13 kts | 38° |
| 2026-05-01 15:14 | -32.09289 | 115.88177 | 95 ft | 13 kts | 1° |
| 2026-05-01 15:15 | -32.09255 | 115.88171 | 95 ft | 0 kts | 280° |